sensor_id;sensor_type;location;lat;lon;timestamp;P1;durP1;ratioP1;P2;durP2;ratioP2
15202;SDS011;7702;51.046;5.184;2023-04-03T00:01:34;6.30;;;5.40;;
15202;SDS011;7702;51.046;5.184;2023-04-03T00:04:01;8.03;;;5.57;;
15202;SDS011;7702;51.046;5.184;2023-04-03T00:06:27;5.90;;;5.17;;
15202;SDS011;7702;51.046;5.184;2023-04-03T00:08:53;7.17;;;5.67;;
15202;SDS011;7702;51.046;5.184;2023-04-03T00:11:18;8.40;;;6.50;;
15202;SDS011;7702;51.046;5.184;2023-04-03T00:13:45;7.03;;;5.80;;
15202;SDS011;7702;51.046;5.184;2023-04-03T00:16:11;8.93;;;5.67;;
15202;SDS011;7702;51.046;5.184;2023-04-03T00:18:39;8.13;;;6.37;;
15202;SDS011;7702;51.046;5.184;2023-04-03T00:21:05;8.73;;;6.50;;
15202;SDS011;7702;51.046;5.184;2023-04-03T00:23:31;8.60;;;5.63;;
15202;SDS011;7702;51.046;5.184;2023-04-03T00:25:57;9.17;;;6.37;;
15202;SDS011;7702;51.046;5.184;2023-04-03T00:28:23;8.17;;;5.70;;
15202;SDS011;7702;51.046;5.184;2023-04-03T00:30:49;7.57;;;5.83;;
15202;SDS011;7702;51.046;5.184;2023-04-03T00:33:16;7.63;;;6.17;;
15202;SDS011;7702;51.046;5.184;2023-04-03T00:35:42;6.43;;;5.30;;
15202;SDS011;7702;51.046;5.184;2023-04-03T00:38:08;8.47;;;5.90;;
15202;SDS011;7702;51.046;5.184;2023-04-03T00:40:38;8.43;;;6.63;;
15202;SDS011;7702;51.046;5.184;2023-04-03T00:43:25;7.33;;;6.30;;
15202;SDS011;7702;51.046;5.184;2023-04-03T00:45:57;8.70;;;5.87;;
15202;SDS011;7702;51.046;5.184;2023-04-03T00:50:57;10.83;;;6.67;;
15202;SDS011;7702;51.046;5.184;2023-04-03T00:53:25;9.30;;;6.40;;
15202;SDS011;7702;51.046;5.184;2023-04-03T00:55:59;6.37;;;5.73;;
15202;SDS011;7702;51.046;5.184;2023-04-03T00:58:40;7.77;;;6.73;;
15202;SDS011;7702;51.046;5.184;2023-04-03T01:01:12;6.83;;;6.07;;
15202;SDS011;7702;51.046;5.184;2023-04-03T01:03:41;7.33;;;5.97;;
15202;SDS011;7702;51.046;5.184;2023-04-03T01:06:09;11.03;;;6.47;;
15202;SDS011;7702;51.046;5.184;2023-04-03T01:08:35;8.13;;;6.40;;
15202;SDS011;7702;51.046;5.184;2023-04-03T01:11:01;6.07;;;5.47;;
15202;SDS011;7702;51.046;5.184;2023-04-03T01:13:30;7.13;;;6.43;;
15202;SDS011;7702;51.046;5.184;2023-04-03T01:16:00;7.83;;;5.87;;
15202;SDS011;7702;51.046;5.184;2023-04-03T01:18:26;9.60;;;5.87;;
15202;SDS011;7702;51.046;5.184;2023-04-03T01:26:56;9.80;;;6.80;;
15202;SDS011;7702;51.046;5.184;2023-04-03T01:29:22;7.33;;;5.97;;
15202;SDS011;7702;51.046;5.184;2023-04-03T01:34:20;7.80;;;6.93;;
15202;SDS011;7702;51.046;5.184;2023-04-03T01:36:46;8.90;;;6.10;;
15202;SDS011;7702;51.046;5.184;2023-04-03T01:39:13;8.60;;;6.80;;
15202;SDS011;7702;51.046;5.184;2023-04-03T01:41:39;8.70;;;7.23;;
15202;SDS011;7702;51.046;5.184;2023-04-03T01:44:05;8.23;;;6.57;;
15202;SDS011;7702;51.046;5.184;2023-04-03T01:46:30;8.63;;;6.63;;
15202;SDS011;7702;51.046;5.184;2023-04-03T01:48:56;8.40;;;7.10;;
15202;SDS011;7702;51.046;5.184;2023-04-03T01:51:22;7.83;;;7.13;;
15202;SDS011;7702;51.046;5.184;2023-04-03T01:53:47;8.77;;;6.97;;
15202;SDS011;7702;51.046;5.184;2023-04-03T01:56:13;8.83;;;6.57;;
15202;SDS011;7702;51.046;5.184;2023-04-03T01:58:39;7.60;;;6.70;;
15202;SDS011;7702;51.046;5.184;2023-04-03T02:01:05;8.10;;;7.30;;
15202;SDS011;7702;51.046;5.184;2023-04-03T02:03:31;9.53;;;7.17;;
15202;SDS011;7702;51.046;5.184;2023-04-03T02:05:57;7.43;;;6.30;;
15202;SDS011;7702;51.046;5.184;2023-04-03T02:08:23;8.93;;;6.30;;
15202;SDS011;7702;51.046;5.184;2023-04-03T02:10:49;9.07;;;6.13;;
15202;SDS011;7702;51.046;5.184;2023-04-03T02:13:15;8.30;;;6.80;;
15202;SDS011;7702;51.046;5.184;2023-04-03T02:15:42;9.17;;;6.87;;
15202;SDS011;7702;51.046;5.184;2023-04-03T02:18:08;7.97;;;6.33;;
15202;SDS011;7702;51.046;5.184;2023-04-03T02:20:34;7.50;;;6.53;;
15202;SDS011;7702;51.046;5.184;2023-04-03T02:23:00;7.47;;;6.77;;
15202;SDS011;7702;51.046;5.184;2023-04-03T02:25:26;10.13;;;6.40;;
15202;SDS011;7702;51.046;5.184;2023-04-03T02:27:52;6.87;;;6.23;;
15202;SDS011;7702;51.046;5.184;2023-04-03T02:30:18;7.50;;;6.20;;
15202;SDS011;7702;51.046;5.184;2023-04-03T02:32:44;7.73;;;6.37;;
15202;SDS011;7702;51.046;5.184;2023-04-03T02:35:11;7.13;;;6.43;;
15202;SDS011;7702;51.046;5.184;2023-04-03T02:37:37;6.83;;;6.23;;
15202;SDS011;7702;51.046;5.184;2023-04-03T02:40:03;7.47;;;6.20;;
15202;SDS011;7702;51.046;5.184;2023-04-03T02:42:29;8.67;;;6.83;;
15202;SDS011;7702;51.046;5.184;2023-04-03T02:44:55;7.73;;;6.47;;
15202;SDS011;7702;51.046;5.184;2023-04-03T02:47:21;9.53;;;6.73;;
15202;SDS011;7702;51.046;5.184;2023-04-03T02:49:46;8.73;;;7.00;;
15202;SDS011;7702;51.046;5.184;2023-04-03T02:52:13;7.90;;;6.77;;
15202;SDS011;7702;51.046;5.184;2023-04-03T02:54:39;11.00;;;7.23;;
15202;SDS011;7702;51.046;5.184;2023-04-03T02:57:05;9.57;;;7.17;;
15202;SDS011;7702;51.046;5.184;2023-04-03T02:59:34;12.17;;;7.57;;
15202;SDS011;7702;51.046;5.184;2023-04-03T03:02:06;9.47;;;6.90;;
15202;SDS011;7702;51.046;5.184;2023-04-03T03:04:33;8.57;;;7.37;;
15202;SDS011;7702;51.046;5.184;2023-04-03T03:06:59;9.43;;;7.90;;
15202;SDS011;7702;51.046;5.184;2023-04-03T03:09:24;9.60;;;7.87;;
15202;SDS011;7702;51.046;5.184;2023-04-03T03:11:51;8.77;;;7.87;;
15202;SDS011;7702;51.046;5.184;2023-04-03T03:14:17;9.97;;;8.30;;
15202;SDS011;7702;51.046;5.184;2023-04-03T03:16:43;12.67;;;7.70;;
15202;SDS011;7702;51.046;5.184;2023-04-03T03:19:09;11.97;;;8.33;;
15202;SDS011;7702;51.046;5.184;2023-04-03T03:21:35;11.80;;;8.67;;
15202;SDS011;7702;51.046;5.184;2023-04-03T03:24:01;10.77;;;8.73;;
15202;SDS011;7702;51.046;5.184;2023-04-03T03:26:27;10.13;;;8.93;;
15202;SDS011;7702;51.046;5.184;2023-04-03T03:28:53;9.37;;;8.33;;
15202;SDS011;7702;51.046;5.184;2023-04-03T03:31:18;10.27;;;9.20;;
15202;SDS011;7702;51.046;5.184;2023-04-03T03:33:44;10.17;;;8.47;;
15202;SDS011;7702;51.046;5.184;2023-04-03T03:36:10;10.90;;;9.10;;
15202;SDS011;7702;51.046;5.184;2023-04-03T03:38:36;10.63;;;9.10;;
15202;SDS011;7702;51.046;5.184;2023-04-03T03:41:02;10.97;;;8.70;;
15202;SDS011;7702;51.046;5.184;2023-04-03T03:43:28;11.10;;;9.17;;
15202;SDS011;7702;51.046;5.184;2023-04-03T03:45:54;11.20;;;9.57;;
15202;SDS011;7702;51.046;5.184;2023-04-03T03:48:20;11.60;;;9.63;;
15202;SDS011;7702;51.046;5.184;2023-04-03T03:50:46;10.50;;;9.40;;
15202;SDS011;7702;51.046;5.184;2023-04-03T03:53:13;10.97;;;9.43;;
15202;SDS011;7702;51.046;5.184;2023-04-03T03:55:40;10.67;;;9.50;;
15202;SDS011;7702;51.046;5.184;2023-04-03T03:58:06;11.87;;;10.67;;
15202;SDS011;7702;51.046;5.184;2023-04-03T04:00:32;12.10;;;9.63;;
15202;SDS011;7702;51.046;5.184;2023-04-03T04:02:57;11.27;;;10.07;;
15202;SDS011;7702;51.046;5.184;2023-04-03T04:05:23;11.00;;;9.50;;
15202;SDS011;7702;51.046;5.184;2023-04-03T04:07:49;16.00;;;10.27;;
15202;SDS011;7702;51.046;5.184;2023-04-03T04:10:16;12.87;;;10.37;;
15202;SDS011;7702;51.046;5.184;2023-04-03T04:12:41;11.50;;;10.30;;
15202;SDS011;7702;51.046;5.184;2023-04-03T04:15:07;12.93;;;10.47;;
15202;SDS011;7702;51.046;5.184;2023-04-03T04:17:34;12.20;;;10.97;;
15202;SDS011;7702;51.046;5.184;2023-04-03T04:20:00;11.07;;;9.93;;
15202;SDS011;7702;51.046;5.184;2023-04-03T04:22:27;13.23;;;10.43;;
15202;SDS011;7702;51.046;5.184;2023-04-03T04:24:53;15.57;;;10.87;;
15202;SDS011;7702;51.046;5.184;2023-04-03T04:27:19;16.80;;;11.43;;
15202;SDS011;7702;51.046;5.184;2023-04-03T04:29:45;12.23;;;10.93;;
15202;SDS011;7702;51.046;5.184;2023-04-03T04:32:10;14.77;;;11.00;;
15202;SDS011;7702;51.046;5.184;2023-04-03T04:34:36;16.73;;;11.00;;
15202;SDS011;7702;51.046;5.184;2023-04-03T04:37:02;12.10;;;10.77;;
15202;SDS011;7702;51.046;5.184;2023-04-03T04:39:28;11.93;;;10.73;;
15202;SDS011;7702;51.046;5.184;2023-04-03T04:41:54;11.53;;;10.27;;
15202;SDS011;7702;51.046;5.184;2023-04-03T04:44:20;12.03;;;10.87;;
15202;SDS011;7702;51.046;5.184;2023-04-03T04:46:45;13.63;;;11.57;;
15202;SDS011;7702;51.046;5.184;2023-04-03T04:49:11;13.30;;;10.77;;
15202;SDS011;7702;51.046;5.184;2023-04-03T04:51:37;14.57;;;10.43;;
15202;SDS011;7702;51.046;5.184;2023-04-03T04:54:03;13.90;;;11.10;;
15202;SDS011;7702;51.046;5.184;2023-04-03T04:56:28;14.53;;;10.77;;
15202;SDS011;7702;51.046;5.184;2023-04-03T04:58:54;12.73;;;11.00;;
15202;SDS011;7702;51.046;5.184;2023-04-03T05:01:20;12.70;;;11.40;;
15202;SDS011;7702;51.046;5.184;2023-04-03T05:03:46;11.97;;;10.77;;
15202;SDS011;7702;51.046;5.184;2023-04-03T05:06:12;13.27;;;10.50;;
15202;SDS011;7702;51.046;5.184;2023-04-03T05:08:38;14.53;;;10.50;;
15202;SDS011;7702;51.046;5.184;2023-04-03T05:11:04;11.67;;;10.10;;
15202;SDS011;7702;51.046;5.184;2023-04-03T05:13:29;12.93;;;11.00;;
15202;SDS011;7702;51.046;5.184;2023-04-03T05:15:56;14.03;;;10.67;;
15202;SDS011;7702;51.046;5.184;2023-04-03T05:18:21;12.10;;;10.57;;
15202;SDS011;7702;51.046;5.184;2023-04-03T05:20:50;11.80;;;10.60;;
15202;SDS011;7702;51.046;5.184;2023-04-03T05:23:16;16.97;;;10.80;;
15202;SDS011;7702;51.046;5.184;2023-04-03T05:25:42;14.83;;;11.47;;
15202;SDS011;7702;51.046;5.184;2023-04-03T05:28:10;12.00;;;10.67;;
15202;SDS011;7702;51.046;5.184;2023-04-03T05:30:36;11.60;;;10.00;;
15202;SDS011;7702;51.046;5.184;2023-04-03T05:33:01;15.50;;;11.03;;
15202;SDS011;7702;51.046;5.184;2023-04-03T05:35:27;11.57;;;10.37;;
15202;SDS011;7702;51.046;5.184;2023-04-03T05:37:53;12.03;;;10.37;;
15202;SDS011;7702;51.046;5.184;2023-04-03T05:40:19;10.80;;;9.63;;
15202;SDS011;7702;51.046;5.184;2023-04-03T05:42:45;13.10;;;10.27;;
15202;SDS011;7702;51.046;5.184;2023-04-03T05:45:11;13.53;;;10.17;;
15202;SDS011;7702;51.046;5.184;2023-04-03T05:47:37;13.67;;;9.17;;
15202;SDS011;7702;51.046;5.184;2023-04-03T05:50:03;15.17;;;10.30;;
15202;SDS011;7702;51.046;5.184;2023-04-03T05:52:39;11.03;;;9.97;;
15202;SDS011;7702;51.046;5.184;2023-04-03T05:55:08;11.57;;;10.27;;
15202;SDS011;7702;51.046;5.184;2023-04-03T05:57:34;11.70;;;9.67;;
15202;SDS011;7702;51.046;5.184;2023-04-03T06:00:00;10.27;;;8.83;;
15202;SDS011;7702;51.046;5.184;2023-04-03T06:02:26;10.70;;;8.90;;
15202;SDS011;7702;51.046;5.184;2023-04-03T06:04:52;10.37;;;9.33;;
15202;SDS011;7702;51.046;5.184;2023-04-03T06:07:18;11.23;;;9.50;;
15202;SDS011;7702;51.046;5.184;2023-04-03T06:09:47;11.63;;;8.77;;
15202;SDS011;7702;51.046;5.184;2023-04-03T06:12:14;11.20;;;7.90;;
15202;SDS011;7702;51.046;5.184;2023-04-03T06:14:40;10.53;;;7.73;;
15202;SDS011;7702;51.046;5.184;2023-04-03T06:17:06;11.00;;;7.37;;
15202;SDS011;7702;51.046;5.184;2023-04-03T06:19:33;8.90;;;7.80;;
15202;SDS011;7702;51.046;5.184;2023-04-03T06:22:00;7.90;;;7.10;;
15202;SDS011;7702;51.046;5.184;2023-04-03T06:24:26;9.53;;;7.10;;
15202;SDS011;7702;51.046;5.184;2023-04-03T06:26:52;8.80;;;6.73;;
15202;SDS011;7702;51.046;5.184;2023-04-03T06:29:18;9.47;;;6.87;;
15202;SDS011;7702;51.046;5.184;2023-04-03T06:31:45;9.13;;;6.57;;
15202;SDS011;7702;51.046;5.184;2023-04-03T06:34:11;8.87;;;6.20;;
15202;SDS011;7702;51.046;5.184;2023-04-03T06:36:38;8.77;;;6.13;;
15202;SDS011;7702;51.046;5.184;2023-04-03T06:39:05;6.83;;;5.73;;
15202;SDS011;7702;51.046;5.184;2023-04-03T06:41:30;7.57;;;5.73;;
15202;SDS011;7702;51.046;5.184;2023-04-03T06:43:56;9.83;;;6.13;;
15202;SDS011;7702;51.046;5.184;2023-04-03T06:46:23;9.00;;;5.80;;
15202;SDS011;7702;51.046;5.184;2023-04-03T06:48:50;9.93;;;5.57;;
15202;SDS011;7702;51.046;5.184;2023-04-03T06:51:20;12.10;;;6.23;;
15202;SDS011;7702;51.046;5.184;2023-04-03T06:53:51;8.60;;;5.97;;
15202;SDS011;7702;51.046;5.184;2023-04-03T06:56:19;6.60;;;4.93;;
15202;SDS011;7702;51.046;5.184;2023-04-03T06:58:46;7.80;;;5.03;;
15202;SDS011;7702;51.046;5.184;2023-04-03T07:01:13;7.50;;;5.27;;
15202;SDS011;7702;51.046;5.184;2023-04-03T07:03:41;7.20;;;4.70;;
15202;SDS011;7702;51.046;5.184;2023-04-03T07:06:07;6.95;;;5.22;;
15202;SDS011;7702;51.046;5.184;2023-04-03T07:08:36;7.10;;;4.80;;
15202;SDS011;7702;51.046;5.184;2023-04-03T07:11:02;7.13;;;4.80;;
15202;SDS011;7702;51.046;5.184;2023-04-03T07:13:29;6.97;;;4.33;;
15202;SDS011;7702;51.046;5.184;2023-04-03T07:15:55;6.93;;;4.23;;
15202;SDS011;7702;51.046;5.184;2023-04-03T07:18:21;6.03;;;4.67;;
15202;SDS011;7702;51.046;5.184;2023-04-03T07:20:47;8.17;;;4.57;;
15202;SDS011;7702;51.046;5.184;2023-04-03T07:23:13;6.07;;;4.60;;
15202;SDS011;7702;51.046;5.184;2023-04-03T07:25:45;7.50;;;4.27;;
15202;SDS011;7702;51.046;5.184;2023-04-03T07:28:12;6.23;;;4.03;;
15202;SDS011;7702;51.046;5.184;2023-04-03T07:30:44;8.77;;;4.33;;
15202;SDS011;7702;51.046;5.184;2023-04-03T07:33:11;7.47;;;3.77;;
15202;SDS011;7702;51.046;5.184;2023-04-03T07:35:38;5.03;;;3.57;;
15202;SDS011;7702;51.046;5.184;2023-04-03T07:38:04;6.00;;;3.47;;
15202;SDS011;7702;51.046;5.184;2023-04-03T07:40:30;6.37;;;3.73;;
15202;SDS011;7702;51.046;5.184;2023-04-03T07:42:56;6.13;;;3.80;;
15202;SDS011;7702;51.046;5.184;2023-04-03T07:45:22;4.90;;;3.47;;
15202;SDS011;7702;51.046;5.184;2023-04-03T07:47:48;6.10;;;3.03;;
15202;SDS011;7702;51.046;5.184;2023-04-03T07:50:14;4.50;;;2.70;;
15202;SDS011;7702;51.046;5.184;2023-04-03T07:52:40;6.53;;;3.20;;
15202;SDS011;7702;51.046;5.184;2023-04-03T07:55:06;5.73;;;3.23;;
15202;SDS011;7702;51.046;5.184;2023-04-03T07:57:33;4.33;;;2.60;;
15202;SDS011;7702;51.046;5.184;2023-04-03T07:59:59;5.93;;;3.10;;
15202;SDS011;7702;51.046;5.184;2023-04-03T08:02:25;3.90;;;2.60;;
15202;SDS011;7702;51.046;5.184;2023-04-03T08:04:51;5.17;;;2.63;;
15202;SDS011;7702;51.046;5.184;2023-04-03T08:07:17;5.53;;;2.90;;
15202;SDS011;7702;51.046;5.184;2023-04-03T08:09:43;6.17;;;3.27;;
15202;SDS011;7702;51.046;5.184;2023-04-03T08:12:09;5.90;;;2.87;;
15202;SDS011;7702;51.046;5.184;2023-04-03T08:14:36;4.93;;;2.50;;
15202;SDS011;7702;51.046;5.184;2023-04-03T08:17:02;4.43;;;2.73;;
15202;SDS011;7702;51.046;5.184;2023-04-03T08:19:30;5.70;;;3.00;;
15202;SDS011;7702;51.046;5.184;2023-04-03T08:21:56;3.77;;;2.33;;
15202;SDS011;7702;51.046;5.184;2023-04-03T08:24:23;4.90;;;2.80;;
15202;SDS011;7702;51.046;5.184;2023-04-03T08:26:50;5.47;;;3.13;;
15202;SDS011;7702;51.046;5.184;2023-04-03T08:29:16;4.90;;;2.53;;
15202;SDS011;7702;51.046;5.184;2023-04-03T08:31:41;4.07;;;2.43;;
15202;SDS011;7702;51.046;5.184;2023-04-03T08:34:07;6.87;;;2.83;;
15202;SDS011;7702;51.046;5.184;2023-04-03T08:36:33;4.63;;;2.73;;
15202;SDS011;7702;51.046;5.184;2023-04-03T08:38:59;5.23;;;2.33;;
15202;SDS011;7702;51.046;5.184;2023-04-03T08:41:35;7.03;;;2.67;;
15202;SDS011;7702;51.046;5.184;2023-04-03T08:44:15;6.67;;;2.90;;
15202;SDS011;7702;51.046;5.184;2023-04-03T08:46:53;4.10;;;2.30;;
15202;SDS011;7702;51.046;5.184;2023-04-03T08:49:42;4.93;;;3.33;;
15202;SDS011;7702;51.046;5.184;2023-04-03T08:52:16;5.37;;;2.63;;
15202;SDS011;7702;51.046;5.184;2023-04-03T08:54:53;3.90;;;2.73;;
15202;SDS011;7702;51.046;5.184;2023-04-03T09:00:24;5.27;;;2.53;;
15202;SDS011;7702;51.046;5.184;2023-04-03T09:02:53;6.83;;;3.13;;
15202;SDS011;7702;51.046;5.184;2023-04-03T09:05:30;5.87;;;2.30;;
15202;SDS011;7702;51.046;5.184;2023-04-03T09:10:49;5.70;;;1.90;;
15202;SDS011;7702;51.046;5.184;2023-04-03T09:13:47;4.13;;;2.30;;
15202;SDS011;7702;51.046;5.184;2023-04-03T09:19:28;5.10;;;2.27;;
15202;SDS011;7702;51.046;5.184;2023-04-03T09:21:58;3.95;;;2.40;;
15202;SDS011;7702;51.046;5.184;2023-04-03T09:24:28;2.83;;;2.07;;
15202;SDS011;7702;51.046;5.184;2023-04-03T09:26:58;4.47;;;2.27;;
15202;SDS011;7702;51.046;5.184;2023-04-03T09:29:28;3.20;;;1.60;;
15202;SDS011;7702;51.046;5.184;2023-04-03T09:32:01;4.33;;;2.23;;
15202;SDS011;7702;51.046;5.184;2023-04-03T09:34:37;4.23;;;2.43;;
15202;SDS011;7702;51.046;5.184;2023-04-03T09:37:06;3.90;;;2.03;;
15202;SDS011;7702;51.046;5.184;2023-04-03T09:39:48;4.97;;;1.83;;
15202;SDS011;7702;51.046;5.184;2023-04-03T09:42:19;4.07;;;2.20;;
15202;SDS011;7702;51.046;5.184;2023-04-03T09:44:56;2.73;;;1.53;;
15202;SDS011;7702;51.046;5.184;2023-04-03T09:49:50;6.50;;;2.00;;
15202;SDS011;7702;51.046;5.184;2023-04-03T09:52:23;3.83;;;2.10;;
15202;SDS011;7702;51.046;5.184;2023-04-03T09:54:50;3.27;;;2.30;;
15202;SDS011;7702;51.046;5.184;2023-04-03T09:57:17;2.77;;;1.63;;
15202;SDS011;7702;51.046;5.184;2023-04-03T09:59:47;2.60;;;1.70;;
15202;SDS011;7702;51.046;5.184;2023-04-03T10:04:58;3.33;;;2.10;;
15202;SDS011;7702;51.046;5.184;2023-04-03T10:10:22;5.47;;;2.17;;
15202;SDS011;7702;51.046;5.184;2023-04-03T10:13:07;2.13;;;1.53;;
15202;SDS011;7702;51.046;5.184;2023-04-03T10:15:41;2.27;;;1.30;;
15202;SDS011;7702;51.046;5.184;2023-04-03T10:21:08;4.73;;;1.43;;
15202;SDS011;7702;51.046;5.184;2023-04-03T10:23:52;2.23;;;1.23;;
15202;SDS011;7702;51.046;5.184;2023-04-03T10:26:35;3.47;;;1.70;;
15202;SDS011;7702;51.046;5.184;2023-04-03T10:29:52;2.47;;;1.47;;
15202;SDS011;7702;51.046;5.184;2023-04-03T10:33:05;2.40;;;1.40;;
15202;SDS011;7702;51.046;5.184;2023-04-03T10:41:28;2.83;;;1.17;;
15202;SDS011;7702;51.046;5.184;2023-04-03T10:52:24;1.67;;;1.30;;
15202;SDS011;7702;51.046;5.184;2023-04-03T10:57:56;1.43;;;1.10;;
15202;SDS011;7702;51.046;5.184;2023-04-03T11:00:33;1.43;;;0.90;;
15202;SDS011;7702;51.046;5.184;2023-04-03T11:03:11;1.83;;;1.17;;
15202;SDS011;7702;51.046;5.184;2023-04-03T11:05:47;2.03;;;0.83;;
15202;SDS011;7702;51.046;5.184;2023-04-03T11:11:11;1.60;;;0.90;;
15202;SDS011;7702;51.046;5.184;2023-04-03T11:13:41;2.47;;;1.07;;
15202;SDS011;7702;51.046;5.184;2023-04-03T11:16:16;1.43;;;1.17;;
15202;SDS011;7702;51.046;5.184;2023-04-03T11:18:56;1.20;;;1.07;;
15202;SDS011;7702;51.046;5.184;2023-04-03T11:21:42;2.03;;;1.27;;
15202;SDS011;7702;51.046;5.184;2023-04-03T11:24:16;2.03;;;1.30;;
15202;SDS011;7702;51.046;5.184;2023-04-03T11:26:55;1.97;;;1.37;;
15202;SDS011;7702;51.046;5.184;2023-04-03T11:29:23;1.57;;;1.10;;
15202;SDS011;7702;51.046;5.184;2023-04-03T11:37:01;4.03;;;1.50;;
15202;SDS011;7702;51.046;5.184;2023-04-03T11:39:37;1.10;;;1.00;;
15202;SDS011;7702;51.046;5.184;2023-04-03T11:42:25;2.30;;;1.30;;
15202;SDS011;7702;51.046;5.184;2023-04-03T12:13:34;2.00;;;1.37;;
15202;SDS011;7702;51.046;5.184;2023-04-03T12:16:02;1.20;;;1.10;;
15202;SDS011;7702;51.046;5.184;2023-04-03T12:21:07;5.80;;;1.57;;
15202;SDS011;7702;51.046;5.184;2023-04-03T12:23:34;2.70;;;1.23;;
15202;SDS011;7702;51.046;5.184;2023-04-03T12:26:20;1.87;;;1.53;;
15202;SDS011;7702;51.046;5.184;2023-04-03T12:28:48;2.20;;;1.63;;
15202;SDS011;7702;51.046;5.184;2023-04-03T12:31:17;2.70;;;1.40;;
15202;SDS011;7702;51.046;5.184;2023-04-03T12:36:29;2.30;;;1.40;;
15202;SDS011;7702;51.046;5.184;2023-04-03T12:47:45;1.70;;;1.10;;
15202;SDS011;7702;51.046;5.184;2023-04-03T12:50:20;1.70;;;1.23;;
15202;SDS011;7702;51.046;5.184;2023-04-03T12:55:29;6.60;;;1.20;;
15202;SDS011;7702;51.046;5.184;2023-04-03T12:57:56;2.00;;;1.10;;
15202;SDS011;7702;51.046;5.184;2023-04-03T13:00:27;2.37;;;1.37;;
15202;SDS011;7702;51.046;5.184;2023-04-03T13:02:58;2.17;;;0.90;;
15202;SDS011;7702;51.046;5.184;2023-04-03T13:05:26;3.13;;;1.43;;
15202;SDS011;7702;51.046;5.184;2023-04-03T13:07:58;4.07;;;1.17;;
15202;SDS011;7702;51.046;5.184;2023-04-03T13:10:27;1.50;;;1.00;;
15202;SDS011;7702;51.046;5.184;2023-04-03T13:12:58;2.57;;;0.70;;
15202;SDS011;7702;51.046;5.184;2023-04-03T13:15:42;2.27;;;1.13;;
15202;SDS011;7702;51.046;5.184;2023-04-03T13:20:59;1.50;;;1.13;;
15202;SDS011;7702;51.046;5.184;2023-04-03T13:23:38;1.33;;;1.10;;
15202;SDS011;7702;51.046;5.184;2023-04-03T13:26:07;2.03;;;1.13;;
15202;SDS011;7702;51.046;5.184;2023-04-03T13:28:34;3.57;;;1.17;;
15202;SDS011;7702;51.046;5.184;2023-04-03T13:33:57;1.67;;;1.43;;
15202;SDS011;7702;51.046;5.184;2023-04-03T13:36:31;3.53;;;1.17;;
15202;SDS011;7702;51.046;5.184;2023-04-03T13:39:02;1.23;;;1.07;;
15202;SDS011;7702;51.046;5.184;2023-04-03T13:41:32;2.80;;;1.53;;
15202;SDS011;7702;51.046;5.184;2023-04-03T13:46:51;2.07;;;1.63;;
15202;SDS011;7702;51.046;5.184;2023-04-03T13:51:56;2.80;;;1.40;;
15202;SDS011;7702;51.046;5.184;2023-04-03T13:54:24;2.23;;;1.13;;
15202;SDS011;7702;51.046;5.184;2023-04-03T13:57:15;2.20;;;1.40;;
15202;SDS011;7702;51.046;5.184;2023-04-03T13:59:41;2.37;;;1.30;;
15202;SDS011;7702;51.046;5.184;2023-04-03T14:07:02;2.30;;;1.03;;
15202;SDS011;7702;51.046;5.184;2023-04-03T14:09:28;2.50;;;1.30;;
15202;SDS011;7702;51.046;5.184;2023-04-03T14:12:00;2.93;;;1.83;;
15202;SDS011;7702;51.046;5.184;2023-04-03T14:14:32;3.40;;;1.70;;
15202;SDS011;7702;51.046;5.184;2023-04-03T14:17:00;2.50;;;1.50;;
15202;SDS011;7702;51.046;5.184;2023-04-03T14:19:30;2.67;;;1.60;;
15202;SDS011;7702;51.046;5.184;2023-04-03T14:21:58;2.30;;;1.53;;
15202;SDS011;7702;51.046;5.184;2023-04-03T14:24:25;4.20;;;1.80;;
15202;SDS011;7702;51.046;5.184;2023-04-03T14:26:53;2.20;;;1.10;;
15202;SDS011;7702;51.046;5.184;2023-04-03T14:29:20;1.43;;;1.30;;
15202;SDS011;7702;51.046;5.184;2023-04-03T14:31:47;2.43;;;1.30;;
15202;SDS011;7702;51.046;5.184;2023-04-03T14:34:14;1.93;;;1.40;;
15202;SDS011;7702;51.046;5.184;2023-04-03T14:36:42;1.57;;;1.30;;
15202;SDS011;7702;51.046;5.184;2023-04-03T14:39:18;3.80;;;1.70;;
15202;SDS011;7702;51.046;5.184;2023-04-03T14:41:45;3.80;;;1.57;;
15202;SDS011;7702;51.046;5.184;2023-04-03T14:44:11;1.77;;;1.43;;
15202;SDS011;7702;51.046;5.184;2023-04-03T14:46:38;2.50;;;1.60;;
15202;SDS011;7702;51.046;5.184;2023-04-03T14:49:14;2.93;;;1.60;;
15202;SDS011;7702;51.046;5.184;2023-04-03T14:51:43;2.40;;;1.73;;
15202;SDS011;7702;51.046;5.184;2023-04-03T14:54:16;3.37;;;1.57;;
15202;SDS011;7702;51.046;5.184;2023-04-03T14:56:46;3.63;;;2.00;;
15202;SDS011;7702;51.046;5.184;2023-04-03T14:59:13;1.93;;;1.50;;
15202;SDS011;7702;51.046;5.184;2023-04-03T15:01:40;2.33;;;1.50;;
15202;SDS011;7702;51.046;5.184;2023-04-03T15:04:12;1.57;;;1.47;;
15202;SDS011;7702;51.046;5.184;2023-04-03T15:06:43;2.47;;;1.87;;
15202;SDS011;7702;51.046;5.184;2023-04-03T15:09:30;2.00;;;1.43;;
15202;SDS011;7702;51.046;5.184;2023-04-03T15:11:55;2.07;;;1.57;;
15202;SDS011;7702;51.046;5.184;2023-04-03T15:14:21;2.67;;;2.00;;
15202;SDS011;7702;51.046;5.184;2023-04-03T15:16:47;2.20;;;1.30;;
15202;SDS011;7702;51.046;5.184;2023-04-03T15:19:13;2.83;;;1.90;;
15202;SDS011;7702;51.046;5.184;2023-04-03T15:21:39;2.97;;;1.77;;
15202;SDS011;7702;51.046;5.184;2023-04-03T15:24:05;2.17;;;1.67;;
15202;SDS011;7702;51.046;5.184;2023-04-03T15:26:32;2.10;;;1.73;;
15202;SDS011;7702;51.046;5.184;2023-04-03T15:28:58;3.83;;;1.60;;
15202;SDS011;7702;51.046;5.184;2023-04-03T15:31:23;1.90;;;1.60;;
15202;SDS011;7702;51.046;5.184;2023-04-03T15:33:49;1.70;;;1.60;;
15202;SDS011;7702;51.046;5.184;2023-04-03T15:36:15;2.27;;;1.60;;
15202;SDS011;7702;51.046;5.184;2023-04-03T15:38:41;1.83;;;1.63;;
15202;SDS011;7702;51.046;5.184;2023-04-03T15:41:07;2.27;;;1.30;;
15202;SDS011;7702;51.046;5.184;2023-04-03T15:43:32;2.97;;;1.80;;
15202;SDS011;7702;51.046;5.184;2023-04-03T15:46:00;1.87;;;1.50;;
15202;SDS011;7702;51.046;5.184;2023-04-03T15:48:26;1.93;;;1.23;;
15202;SDS011;7702;51.046;5.184;2023-04-03T15:50:53;3.00;;;1.70;;
15202;SDS011;7702;51.046;5.184;2023-04-03T15:53:19;3.30;;;1.57;;
15202;SDS011;7702;51.046;5.184;2023-04-03T15:55:45;3.23;;;1.50;;
15202;SDS011;7702;51.046;5.184;2023-04-03T15:58:11;2.73;;;1.80;;
15202;SDS011;7702;51.046;5.184;2023-04-03T16:00:37;2.43;;;1.73;;
15202;SDS011;7702;51.046;5.184;2023-04-03T16:03:04;4.17;;;1.83;;
15202;SDS011;7702;51.046;5.184;2023-04-03T16:05:35;3.23;;;2.00;;
15202;SDS011;7702;51.046;5.184;2023-04-03T16:08:03;2.30;;;1.40;;
15202;SDS011;7702;51.046;5.184;2023-04-03T16:10:30;1.77;;;1.50;;
15202;SDS011;7702;51.046;5.184;2023-04-03T16:12:56;3.70;;;2.00;;
15202;SDS011;7702;51.046;5.184;2023-04-03T16:15:22;4.17;;;2.30;;
15202;SDS011;7702;51.046;5.184;2023-04-03T16:17:49;2.50;;;1.90;;
15202;SDS011;7702;51.046;5.184;2023-04-03T16:20:15;2.63;;;1.57;;
15202;SDS011;7702;51.046;5.184;2023-04-03T16:22:41;3.20;;;1.50;;
15202;SDS011;7702;51.046;5.184;2023-04-03T16:25:08;4.33;;;1.83;;
15202;SDS011;7702;51.046;5.184;2023-04-03T16:27:35;2.23;;;1.57;;
15202;SDS011;7702;51.046;5.184;2023-04-03T16:30:01;2.67;;;1.80;;
15202;SDS011;7702;51.046;5.184;2023-04-03T16:32:28;3.57;;;1.57;;
15202;SDS011;7702;51.046;5.184;2023-04-03T16:34:55;2.50;;;1.70;;
15202;SDS011;7702;51.046;5.184;2023-04-03T16:37:22;1.60;;;1.30;;
15202;SDS011;7702;51.046;5.184;2023-04-03T16:39:48;3.57;;;1.80;;
15202;SDS011;7702;51.046;5.184;2023-04-03T16:42:14;4.40;;;1.50;;
15202;SDS011;7702;51.046;5.184;2023-04-03T16:44:40;2.77;;;1.73;;
15202;SDS011;7702;51.046;5.184;2023-04-03T16:47:06;4.70;;;1.90;;
15202;SDS011;7702;51.046;5.184;2023-04-03T16:49:32;1.87;;;1.43;;
15202;SDS011;7702;51.046;5.184;2023-04-03T16:52:00;1.60;;;1.47;;
15202;SDS011;7702;51.046;5.184;2023-04-03T16:54:26;2.57;;;1.80;;
15202;SDS011;7702;51.046;5.184;2023-04-03T16:56:52;1.97;;;1.40;;
15202;SDS011;7702;51.046;5.184;2023-04-03T16:59:18;2.40;;;1.60;;
15202;SDS011;7702;51.046;5.184;2023-04-03T17:01:44;4.27;;;1.77;;
15202;SDS011;7702;51.046;5.184;2023-04-03T17:04:10;1.93;;;1.50;;